sensor_id;sensor_type;location;lat;lon;timestamp;temperature;humidity
43627;DHT22;29217;52.586;13.442;2022-09-17T00:00:17;11.60;99.90
43627;DHT22;29217;52.586;13.442;2022-09-17T00:02:42;11.60;99.90
43627;DHT22;29217;52.586;13.442;2022-09-17T00:05:10;11.70;99.90
43627;DHT22;29217;52.586;13.442;2022-09-17T00:07:36;11.70;99.90
43627;DHT22;29217;52.586;13.442;2022-09-17T00:10:02;11.60;99.90
43627;DHT22;29217;52.586;13.442;2022-09-17T00:12:27;11.70;99.90
43627;DHT22;29217;52.586;13.442;2022-09-17T00:14:53;11.60;99.90
43627;DHT22;29217;52.586;13.442;2022-09-17T00:17:18;11.60;99.90
43627;DHT22;29217;52.586;13.442;2022-09-17T00:19:44;11.60;99.90
43627;DHT22;29217;52.586;13.442;2022-09-17T00:22:09;11.60;99.90
43627;DHT22;29217;52.586;13.442;2022-09-17T00:24:35;11.70;99.90
43627;DHT22;29217;52.586;13.442;2022-09-17T00:27:00;11.70;99.90
43627;DHT22;29217;52.586;13.442;2022-09-17T00:29:26;11.70;99.90
43627;DHT22;29217;52.586;13.442;2022-09-17T00:31:51;11.70;99.90
43627;DHT22;29217;52.586;13.442;2022-09-17T00:34:17;11.70;99.90
43627;DHT22;29217;52.586;13.442;2022-09-17T00:36:42;11.70;99.90
43627;DHT22;29217;52.586;13.442;2022-09-17T00:39:10;11.80;99.90
43627;DHT22;29217;52.586;13.442;2022-09-17T00:41:36;11.70;99.90
43627;DHT22;29217;52.586;13.442;2022-09-17T00:47:30;11.70;99.90
43627;DHT22;29217;52.586;13.442;2022-09-17T00:52:52;11.80;99.90
43627;DHT22;29217;52.586;13.442;2022-09-17T00:55:27;11.80;99.90
43627;DHT22;29217;52.586;13.442;2022-09-17T00:57:56;11.80;99.90
43627;DHT22;29217;52.586;13.442;2022-09-17T01:00:23;11.80;99.90
43627;DHT22;29217;52.586;13.442;2022-09-17T01:02:50;11.80;99.90
43627;DHT22;29217;52.586;13.442;2022-09-17T01:05:20;11.80;99.90
43627;DHT22;29217;52.586;13.442;2022-09-17T01:13:33;11.80;99.90
43627;DHT22;29217;52.586;13.442;2022-09-17T01:16:14;11.80;99.90
43627;DHT22;29217;52.586;13.442;2022-09-17T01:18:59;11.80;99.90
43627;DHT22;29217;52.586;13.442;2022-09-17T01:32:17;11.90;99.90
43627;DHT22;29217;52.586;13.442;2022-09-17T01:37:59;11.90;99.90
43627;DHT22;29217;52.586;13.442;2022-09-17T01:40:34;11.90;99.90
43627;DHT22;29217;52.586;13.442;2022-09-17T01:43:24;11.90;99.90
43627;DHT22;29217;52.586;13.442;2022-09-17T01:45:54;11.90;99.90
43627;DHT22;29217;52.586;13.442;2022-09-17T01:48:28;11.90;99.90
43627;DHT22;29217;52.586;13.442;2022-09-17T01:50:57;11.90;99.90
43627;DHT22;29217;52.586;13.442;2022-09-17T01:53:34;11.90;99.90
43627;DHT22;29217;52.586;13.442;2022-09-17T01:56:03;11.90;99.90
43627;DHT22;29217;52.586;13.442;2022-09-17T01:58:37;11.90;99.90
43627;DHT22;29217;52.586;13.442;2022-09-17T02:01:07;12.00;99.90
43627;DHT22;29217;52.586;13.442;2022-09-17T02:03:41;12.00;99.90
43627;DHT22;29217;52.586;13.442;2022-09-17T02:06:16;12.00;99.90
43627;DHT22;29217;52.586;13.442;2022-09-17T02:08:45;12.00;99.90
43627;DHT22;29217;52.586;13.442;2022-09-17T02:11:13;12.00;99.90
43627;DHT22;29217;52.586;13.442;2022-09-17T02:13:43;11.90;99.90
43627;DHT22;29217;52.586;13.442;2022-09-17T02:16:15;12.00;99.90
43627;DHT22;29217;52.586;13.442;2022-09-17T02:19:06;12.00;99.90
43627;DHT22;29217;52.586;13.442;2022-09-17T02:21:44;11.90;99.90
43627;DHT22;29217;52.586;13.442;2022-09-17T02:26:47;11.90;99.90
43627;DHT22;29217;52.586;13.442;2022-09-17T02:29:22;11.90;99.90
43627;DHT22;29217;52.586;13.442;2022-09-17T02:31:49;11.80;99.90
43627;DHT22;29217;52.586;13.442;2022-09-17T02:34:15;11.80;99.90
43627;DHT22;29217;52.586;13.442;2022-09-17T02:36:40;11.80;99.90
43627;DHT22;29217;52.586;13.442;2022-09-17T02:39:08;11.80;99.90
43627;DHT22;29217;52.586;13.442;2022-09-17T02:41:43;11.80;99.90
43627;DHT22;29217;52.586;13.442;2022-09-17T02:50:05;11.80;99.90
43627;DHT22;29217;52.586;13.442;2022-09-17T02:52:57;11.80;99.90
43627;DHT22;29217;52.586;13.442;2022-09-17T02:55:40;11.80;99.90
43627;DHT22;29217;52.586;13.442;2022-09-17T03:00:42;11.80;99.90
43627;DHT22;29217;52.586;13.442;2022-09-17T03:03:31;11.80;99.90
43627;DHT22;29217;52.586;13.442;2022-09-17T03:05:57;11.80;99.90
43627;DHT22;29217;52.586;13.442;2022-09-17T03:08:39;11.80;99.90
43627;DHT22;29217;52.586;13.442;2022-09-17T03:11:07;11.80;99.90
43627;DHT22;29217;52.586;13.442;2022-09-17T03:13:34;11.90;99.90
43627;DHT22;29217;52.586;13.442;2022-09-17T03:16:02;11.80;99.90
43627;DHT22;29217;52.586;13.442;2022-09-17T03:18:27;11.90;99.90
43627;DHT22;29217;52.586;13.442;2022-09-17T03:20:53;11.90;99.90
43627;DHT22;29217;52.586;13.442;2022-09-17T03:23:18;11.90;99.90
43627;DHT22;29217;52.586;13.442;2022-09-17T03:25:45;11.90;99.90
43627;DHT22;29217;52.586;13.442;2022-09-17T03:28:10;11.90;99.90
43627;DHT22;29217;52.586;13.442;2022-09-17T03:30:36;11.90;99.90
43627;DHT22;29217;52.586;13.442;2022-09-17T03:33:01;11.90;99.90
43627;DHT22;29217;52.586;13.442;2022-09-17T03:35:27;11.90;99.90
43627;DHT22;29217;52.586;13.442;2022-09-17T03:37:59;12.00;99.90
43627;DHT22;29217;52.586;13.442;2022-09-17T03:40:24;12.00;99.90
43627;DHT22;29217;52.586;13.442;2022-09-17T03:42:50;12.00;99.90
43627;DHT22;29217;52.586;13.442;2022-09-17T03:45:15;12.00;99.90
43627;DHT22;29217;52.586;13.442;2022-09-17T03:47:41;12.00;99.90
43627;DHT22;29217;52.586;13.442;2022-09-17T03:50:07;12.00;99.90
43627;DHT22;29217;52.586;13.442;2022-09-17T03:52:32;12.00;99.90
43627;DHT22;29217;52.586;13.442;2022-09-17T03:54:58;12.00;99.90
43627;DHT22;29217;52.586;13.442;2022-09-17T03:57:24;12.00;99.90
43627;DHT22;29217;52.586;13.442;2022-09-17T03:59:49;12.00;99.90
43627;DHT22;29217;52.586;13.442;2022-09-17T04:02:15;12.00;99.90
43627;DHT22;29217;52.586;13.442;2022-09-17T04:04:40;12.00;99.90
43627;DHT22;29217;52.586;13.442;2022-09-17T04:07:06;12.00;99.90
43627;DHT22;29217;52.586;13.442;2022-09-17T04:09:31;11.90;99.90
43627;DHT22;29217;52.586;13.442;2022-09-17T04:11:57;12.00;99.90
43627;DHT22;29217;52.586;13.442;2022-09-17T04:14:23;11.90;99.90
43627;DHT22;29217;52.586;13.442;2022-09-17T04:16:49;11.90;99.90
43627;DHT22;29217;52.586;13.442;2022-09-17T04:19:14;11.90;99.90
43627;DHT22;29217;52.586;13.442;2022-09-17T04:21:40;11.90;99.90
43627;DHT22;29217;52.586;13.442;2022-09-17T04:24:05;11.90;99.90
43627;DHT22;29217;52.586;13.442;2022-09-17T04:26:31;11.90;99.90
43627;DHT22;29217;52.586;13.442;2022-09-17T04:28:57;11.90;99.90
43627;DHT22;29217;52.586;13.442;2022-09-17T04:31:22;11.90;99.90
43627;DHT22;29217;52.586;13.442;2022-09-17T04:33:50;11.90;99.90
43627;DHT22;29217;52.586;13.442;2022-09-17T04:36:16;11.90;99.90
43627;DHT22;29217;52.586;13.442;2022-09-17T04:38:41;11.90;99.90
43627;DHT22;29217;52.586;13.442;2022-09-17T04:41:07;11.90;99.90
43627;DHT22;29217;52.586;13.442;2022-09-17T04:43:33;11.90;99.90
43627;DHT22;29217;52.586;13.442;2022-09-17T04:45:58;11.90;99.90
43627;DHT22;29217;52.586;13.442;2022-09-17T04:48:24;12.00;99.90
43627;DHT22;29217;52.586;13.442;2022-09-17T04:50:50;11.90;99.90
43627;DHT22;29217;52.586;13.442;2022-09-17T04:53:15;11.90;99.90
43627;DHT22;29217;52.586;13.442;2022-09-17T04:55:42;11.90;99.90
43627;DHT22;29217;52.586;13.442;2022-09-17T04:58:07;12.00;99.90
43627;DHT22;29217;52.586;13.442;2022-09-17T05:00:33;11.90;99.90
43627;DHT22;29217;52.586;13.442;2022-09-17T05:03:00;12.00;99.90
43627;DHT22;29217;52.586;13.442;2022-09-17T05:05:25;11.90;99.90
43627;DHT22;29217;52.586;13.442;2022-09-17T05:07:51;11.90;99.90
43627;DHT22;29217;52.586;13.442;2022-09-17T05:10:18;11.90;99.90
43627;DHT22;29217;52.586;13.442;2022-09-17T05:12:49;11.90;99.90
43627;DHT22;29217;52.586;13.442;2022-09-17T05:15:14;11.90;99.90
43627;DHT22;29217;52.586;13.442;2022-09-17T05:17:40;12.00;99.90
43627;DHT22;29217;52.586;13.442;2022-09-17T05:20:06;11.90;99.90
43627;DHT22;29217;52.586;13.442;2022-09-17T05:22:31;12.00;99.90
43627;DHT22;29217;52.586;13.442;2022-09-17T05:24:57;12.00;99.90
43627;DHT22;29217;52.586;13.442;2022-09-17T05:27:22;11.90;99.90
43627;DHT22;29217;52.586;13.442;2022-09-17T05:29:47;12.00;99.90
43627;DHT22;29217;52.586;13.442;2022-09-17T05:32:13;12.00;99.90
43627;DHT22;29217;52.586;13.442;2022-09-17T05:34:39;12.00;99.90
43627;DHT22;29217;52.586;13.442;2022-09-17T05:37:07;12.00;99.90
43627;DHT22;29217;52.586;13.442;2022-09-17T05:39:33;12.10;99.90
43627;DHT22;29217;52.586;13.442;2022-09-17T05:41:58;12.10;99.90
43627;DHT22;29217;52.586;13.442;2022-09-17T05:44:24;12.00;99.90
43627;DHT22;29217;52.586;13.442;2022-09-17T05:46:51;12.10;99.90
43627;DHT22;29217;52.586;13.442;2022-09-17T05:49:17;12.10;99.90
43627;DHT22;29217;52.586;13.442;2022-09-17T05:51:43;12.20;99.90
43627;DHT22;29217;52.586;13.442;2022-09-17T05:54:08;12.10;99.90
43627;DHT22;29217;52.586;13.442;2022-09-17T05:56:34;12.10;99.90
43627;DHT22;29217;52.586;13.442;2022-09-17T05:59:00;12.20;99.90
43627;DHT22;29217;52.586;13.442;2022-09-17T06:01:25;12.20;99.90
43627;DHT22;29217;52.586;13.442;2022-09-17T06:03:51;12.20;99.90
43627;DHT22;29217;52.586;13.442;2022-09-17T06:06:17;12.20;99.90
43627;DHT22;29217;52.586;13.442;2022-09-17T06:08:42;12.30;99.90
43627;DHT22;29217;52.586;13.442;2022-09-17T06:11:08;12.30;99.90
43627;DHT22;29217;52.586;13.442;2022-09-17T06:13:34;12.20;99.90
43627;DHT22;29217;52.586;13.442;2022-09-17T06:16:00;12.30;99.90
43627;DHT22;29217;52.586;13.442;2022-09-17T06:18:29;12.30;99.90
43627;DHT22;29217;52.586;13.442;2022-09-17T06:20:59;12.40;99.90
43627;DHT22;29217;52.586;13.442;2022-09-17T06:23:26;12.40;99.90
43627;DHT22;29217;52.586;13.442;2022-09-17T06:25:59;12.40;99.90
43627;DHT22;29217;52.586;13.442;2022-09-17T06:28:26;12.50;99.90
43627;DHT22;29217;52.586;13.442;2022-09-17T06:30:52;12.50;99.90
43627;DHT22;29217;52.586;13.442;2022-09-17T06:33:19;12.50;99.90
43627;DHT22;29217;52.586;13.442;2022-09-17T06:35:45;12.50;99.90
43627;DHT22;29217;52.586;13.442;2022-09-17T06:38:11;12.50;99.90
43627;DHT22;29217;52.586;13.442;2022-09-17T06:40:36;12.60;99.90
43627;DHT22;29217;52.586;13.442;2022-09-17T06:43:02;12.60;99.90
43627;DHT22;29217;52.586;13.442;2022-09-17T06:45:28;12.60;99.90
43627;DHT22;29217;52.586;13.442;2022-09-17T06:47:53;12.60;99.90
43627;DHT22;29217;52.586;13.442;2022-09-17T06:50:19;12.50;99.90
43627;DHT22;29217;52.586;13.442;2022-09-17T06:52:49;12.60;99.90
43627;DHT22;29217;52.586;13.442;2022-09-17T06:55:14;12.50;99.90
43627;DHT22;29217;52.586;13.442;2022-09-17T06:57:40;12.50;99.90
43627;DHT22;29217;52.586;13.442;2022-09-17T07:00:07;12.50;99.90
43627;DHT22;29217;52.586;13.442;2022-09-17T07:02:33;12.50;99.90
43627;DHT22;29217;52.586;13.442;2022-09-17T07:04:59;12.50;99.90
43627;DHT22;29217;52.586;13.442;2022-09-17T07:07:24;12.50;99.90
43627;DHT22;29217;52.586;13.442;2022-09-17T07:09:50;12.50;99.90
43627;DHT22;29217;52.586;13.442;2022-09-17T07:12:16;12.40;99.90
43627;DHT22;29217;52.586;13.442;2022-09-17T07:14:42;12.50;99.90
43627;DHT22;29217;52.586;13.442;2022-09-17T07:17:07;12.40;99.90
43627;DHT22;29217;52.586;13.442;2022-09-17T07:19:33;12.50;99.90
43627;DHT22;29217;52.586;13.442;2022-09-17T07:21:59;12.50;99.90
43627;DHT22;29217;52.586;13.442;2022-09-17T07:24:24;12.60;99.90
43627;DHT22;29217;52.586;13.442;2022-09-17T07:26:50;12.60;99.90
43627;DHT22;29217;52.586;13.442;2022-09-17T07:29:16;12.60;99.90
43627;DHT22;29217;52.586;13.442;2022-09-17T07:31:41;12.60;99.90
43627;DHT22;29217;52.586;13.442;2022-09-17T07:34:08;12.70;99.90
43627;DHT22;29217;52.586;13.442;2022-09-17T07:36:34;12.60;99.90
43627;DHT22;29217;52.586;13.442;2022-09-17T07:38:59;12.60;99.90
43627;DHT22;29217;52.586;13.442;2022-09-17T07:41:25;12.70;99.90
43627;DHT22;29217;52.586;13.442;2022-09-17T07:43:52;12.80;99.90
43627;DHT22;29217;52.586;13.442;2022-09-17T07:46:19;12.80;99.90
43627;DHT22;29217;52.586;13.442;2022-09-17T07:48:45;12.80;99.90
43627;DHT22;29217;52.586;13.442;2022-09-17T07:51:22;12.80;99.90
43627;DHT22;29217;52.586;13.442;2022-09-17T07:53:52;12.80;99.90
43627;DHT22;29217;52.586;13.442;2022-09-17T07:56:18;12.80;99.90
43627;DHT22;29217;52.586;13.442;2022-09-17T07:58:44;12.80;99.90
43627;DHT22;29217;52.586;13.442;2022-09-17T08:01:11;12.80;99.90
43627;DHT22;29217;52.586;13.442;2022-09-17T08:03:38;12.80;99.90
43627;DHT22;29217;52.586;13.442;2022-09-17T08:06:05;12.80;99.90
43627;DHT22;29217;52.586;13.442;2022-09-17T08:08:32;12.90;99.90
43627;DHT22;29217;52.586;13.442;2022-09-17T08:11:00;12.90;99.90
43627;DHT22;29217;52.586;13.442;2022-09-17T08:13:25;12.90;99.90
43627;DHT22;29217;52.586;13.442;2022-09-17T08:15:51;12.90;99.90
43627;DHT22;29217;52.586;13.442;2022-09-17T08:18:16;13.00;99.90
43627;DHT22;29217;52.586;13.442;2022-09-17T08:20:42;13.00;99.90
43627;DHT22;29217;52.586;13.442;2022-09-17T08:23:08;13.20;99.90
43627;DHT22;29217;52.586;13.442;2022-09-17T08:25:33;13.20;99.90
43627;DHT22;29217;52.586;13.442;2022-09-17T08:27:59;13.20;99.90
43627;DHT22;29217;52.586;13.442;2022-09-17T08:30:24;13.30;99.90
43627;DHT22;29217;52.586;13.442;2022-09-17T08:32:50;13.40;99.90
43627;DHT22;29217;52.586;13.442;2022-09-17T08:35:15;13.50;99.90
43627;DHT22;29217;52.586;13.442;2022-09-17T08:37:42;13.50;99.90
43627;DHT22;29217;52.586;13.442;2022-09-17T08:40:14;13.50;99.90
43627;DHT22;29217;52.586;13.442;2022-09-17T08:42:51;13.50;99.90
43627;DHT22;29217;52.586;13.442;2022-09-17T08:45:21;13.50;99.90
43627;DHT22;29217;52.586;13.442;2022-09-17T08:47:47;13.50;99.90
43627;DHT22;29217;52.586;13.442;2022-09-17T08:50:17;13.50;99.90
43627;DHT22;29217;52.586;13.442;2022-09-17T08:53:06;13.70;99.90
43627;DHT22;29217;52.586;13.442;2022-09-17T08:55:52;13.70;99.90
43627;DHT22;29217;52.586;13.442;2022-09-17T08:58:28;13.70;99.90
43627;DHT22;29217;52.586;13.442;2022-09-17T09:01:19;13.50;99.90
43627;DHT22;29217;52.586;13.442;2022-09-17T09:06:36;13.70;99.90
43627;DHT22;29217;52.586;13.442;2022-09-17T09:09:10;13.70;99.90
43627;DHT22;29217;52.586;13.442;2022-09-17T09:11:38;13.80;99.90
43627;DHT22;29217;52.586;13.442;2022-09-17T09:14:32;13.80;99.90
43627;DHT22;29217;52.586;13.442;2022-09-17T09:17:04;13.90;99.90
43627;DHT22;29217;52.586;13.442;2022-09-17T09:19:41;14.00;99.90
43627;DHT22;29217;52.586;13.442;2022-09-17T09:22:50;14.20;99.90
43627;DHT22;29217;52.586;13.442;2022-09-17T09:25:27;14.30;99.90
43627;DHT22;29217;52.586;13.442;2022-09-17T09:31:39;14.20;99.90
43627;DHT22;29217;52.586;13.442;2022-09-17T09:34:08;14.10;99.90
43627;DHT22;29217;52.586;13.442;2022-09-17T09:36:36;14.00;99.90
43627;DHT22;29217;52.586;13.442;2022-09-17T09:39:21;13.90;99.90
43627;DHT22;29217;52.586;13.442;2022-09-17T09:41:51;13.90;99.90
43627;DHT22;29217;52.586;13.442;2022-09-17T09:44:19;13.90;99.90
43627;DHT22;29217;52.586;13.442;2022-09-17T09:47:09;13.80;99.90
43627;DHT22;29217;52.586;13.442;2022-09-17T09:55:09;13.50;99.90
43627;DHT22;29217;52.586;13.442;2022-09-17T09:57:46;13.60;99.90
43627;DHT22;29217;52.586;13.442;2022-09-17T10:05:58;13.80;99.90
43627;DHT22;29217;52.586;13.442;2022-09-17T10:08:26;13.80;99.90
43627;DHT22;29217;52.586;13.442;2022-09-17T10:10:54;13.80;99.90
43627;DHT22;29217;52.586;13.442;2022-09-17T10:13:20;13.80;99.90
43627;DHT22;29217;52.586;13.442;2022-09-17T10:15:46;13.80;99.90
43627;DHT22;29217;52.586;13.442;2022-09-17T10:18:16;13.80;99.90
43627;DHT22;29217;52.586;13.442;2022-09-17T10:23:14;13.90;99.90
43627;DHT22;29217;52.586;13.442;2022-09-17T10:25:43;14.10;99.90
43627;DHT22;29217;52.586;13.442;2022-09-17T10:29:05;14.30;99.90
43627;DHT22;29217;52.586;13.442;2022-09-17T10:31:23;14.50;99.90
43627;DHT22;29217;52.586;13.442;2022-09-17T10:34:01;14.60;99.90
43627;DHT22;29217;52.586;13.442;2022-09-17T10:44:23;13.60;99.90
43627;DHT22;29217;52.586;13.442;2022-09-17T10:46:50;13.30;99.90
43627;DHT22;29217;52.586;13.442;2022-09-17T10:49:21;13.10;99.90
43627;DHT22;29217;52.586;13.442;2022-09-17T10:51:50;13.10;99.90
43627;DHT22;29217;52.586;13.442;2022-09-17T10:54:40;13.10;99.90
43627;DHT22;29217;52.586;13.442;2022-09-17T10:57:15;13.30;99.90
43627;DHT22;29217;52.586;13.442;2022-09-17T11:00:10;13.50;99.90
43627;DHT22;29217;52.586;13.442;2022-09-17T11:02:47;13.70;99.90
43627;DHT22;29217;52.586;13.442;2022-09-17T11:10:43;14.30;99.90
43627;DHT22;29217;52.586;13.442;2022-09-17T11:16:46;14.50;99.90
43627;DHT22;29217;52.586;13.442;2022-09-17T11:24:56;14.50;99.90
43627;DHT22;29217;52.586;13.442;2022-09-17T11:27:37;14.40;99.90
43627;DHT22;29217;52.586;13.442;2022-09-17T11:30:16;14.30;99.90
43627;DHT22;29217;52.586;13.442;2022-09-17T11:33:15;14.40;99.90
43627;DHT22;29217;52.586;13.442;2022-09-17T11:35:47;14.80;99.90
43627;DHT22;29217;52.586;13.442;2022-09-17T11:38:24;15.40;99.90
43627;DHT22;29217;52.586;13.442;2022-09-17T11:41:07;15.60;99.90
43627;DHT22;29217;52.586;13.442;2022-09-17T11:43:37;15.50;99.90
43627;DHT22;29217;52.586;13.442;2022-09-17T11:46:21;14.80;99.90
43627;DHT22;29217;52.586;13.442;2022-09-17T11:48:58;14.20;99.90
43627;DHT22;29217;52.586;13.442;2022-09-17T11:51:36;13.90;99.90
43627;DHT22;29217;52.586;13.442;2022-09-17T11:54:25;13.80;99.90
43627;DHT22;29217;52.586;13.442;2022-09-17T11:57:12;13.80;99.90
43627;DHT22;29217;52.586;13.442;2022-09-17T11:59:55;13.90;99.90
43627;DHT22;29217;52.586;13.442;2022-09-17T12:02:33;14.30;99.90
43627;DHT22;29217;52.586;13.442;2022-09-17T12:05:17;14.60;99.90
43627;DHT22;29217;52.586;13.442;2022-09-17T12:07:53;14.90;99.90
43627;DHT22;29217;52.586;13.442;2022-09-17T12:10:33;15.20;99.90
43627;DHT22;29217;52.586;13.442;2022-09-17T12:15:48;16.20;99.90
43627;DHT22;29217;52.586;13.442;2022-09-17T12:20:52;16.90;99.90
43627;DHT22;29217;52.586;13.442;2022-09-17T12:23:50;16.80;99.90
43627;DHT22;29217;52.586;13.442;2022-09-17T12:26:31;16.30;99.90
43627;DHT22;29217;52.586;13.442;2022-09-17T12:38:05;16.90;99.90
43627;DHT22;29217;52.586;13.442;2022-09-17T12:59:49;15.10;99.90
43627;DHT22;29217;52.586;13.442;2022-09-17T13:02:30;15.20;99.90
43627;DHT22;29217;52.586;13.442;2022-09-17T13:05:38;15.80;99.90
43627;DHT22;29217;52.586;13.442;2022-09-17T13:16:43;17.10;99.90
43627;DHT22;29217;52.586;13.442;2022-09-17T13:19:43;17.40;99.90
43627;DHT22;29217;52.586;13.442;2022-09-17T13:22:16;17.70;99.90
43627;DHT22;29217;52.586;13.442;2022-09-17T13:24:44;17.60;99.90
43627;DHT22;29217;52.586;13.442;2022-09-17T13:27:23;17.40;99.90
43627;DHT22;29217;52.586;13.442;2022-09-17T13:37:35;17.80;99.90
43627;DHT22;29217;52.586;13.442;2022-09-17T13:40:02;17.50;99.90
43627;DHT22;29217;52.586;13.442;2022-09-17T13:42:31;17.40;99.90
43627;DHT22;29217;52.586;13.442;2022-09-17T13:45:12;17.60;99.90
43627;DHT22;29217;52.586;13.442;2022-09-17T13:47:51;17.60;99.90
43627;DHT22;29217;52.586;13.442;2022-09-17T13:55:39;16.60;99.90
43627;DHT22;29217;52.586;13.442;2022-09-17T14:08:46;17.70;99.90
43627;DHT22;29217;52.586;13.442;2022-09-17T14:19:37;17.10;99.90
43627;DHT22;29217;52.586;13.442;2022-09-17T14:24:38;17.00;99.90
43627;DHT22;29217;52.586;13.442;2022-09-17T14:30:49;16.30;99.90
43627;DHT22;29217;52.586;13.442;2022-09-17T14:33:14;16.00;99.90
43627;DHT22;29217;52.586;13.442;2022-09-17T14:35:50;15.80;99.90
43627;DHT22;29217;52.586;13.442;2022-09-17T14:38:21;15.60;99.90
43627;DHT22;29217;52.586;13.442;2022-09-17T14:40:58;15.40;99.90
43627;DHT22;29217;52.586;13.442;2022-09-17T14:45:56;15.50;99.90
43627;DHT22;29217;52.586;13.442;2022-09-17T14:48:30;15.90;99.90
43627;DHT22;29217;52.586;13.442;2022-09-17T14:53:44;16.20;99.90
43627;DHT22;29217;52.586;13.442;2022-09-17T14:56:15;16.10;99.90
43627;DHT22;29217;52.586;13.442;2022-09-17T14:58:46;15.80;99.90
43627;DHT22;29217;52.586;13.442;2022-09-17T15:01:24;15.70;99.90
43627;DHT22;29217;52.586;13.442;2022-09-17T15:06:42;15.60;99.90
43627;DHT22;29217;52.586;13.442;2022-09-17T15:09:21;15.70;99.90
43627;DHT22;29217;52.586;13.442;2022-09-17T15:11:47;15.60;99.90
43627;DHT22;29217;52.586;13.442;2022-09-17T15:14:18;15.40;99.90
43627;DHT22;29217;52.586;13.442;2022-09-17T15:16:53;15.30;99.90
43627;DHT22;29217;52.586;13.442;2022-09-17T15:21:58;15.50;99.90
43627;DHT22;29217;52.586;13.442;2022-09-17T15:24:51;15.40;99.90
43627;DHT22;29217;52.586;13.442;2022-09-17T15:27:40;15.30;99.90
43627;DHT22;29217;52.586;13.442;2022-09-17T15:32:47;15.20;99.90
43627;DHT22;29217;52.586;13.442;2022-09-17T15:37:47;15.10;99.90
43627;DHT22;29217;52.586;13.442;2022-09-17T15:40:28;14.80;99.90
43627;DHT22;29217;52.586;13.442;2022-09-17T15:43:03;14.60;99.90
43627;DHT22;29217;52.586;13.442;2022-09-17T15:45:31;14.50;99.90
43627;DHT22;29217;52.586;13.442;2022-09-17T15:48:02;14.40;99.90
43627;DHT22;29217;52.586;13.442;2022-09-17T15:50:32;14.30;99.90
43627;DHT22;29217;52.586;13.442;2022-09-17T15:55:42;14.20;99.90
43627;DHT22;29217;52.586;13.442;2022-09-17T16:08:45;13.70;99.90
43627;DHT22;29217;52.586;13.442;2022-09-17T16:11:14;13.70;99.90
43627;DHT22;29217;52.586;13.442;2022-09-17T16:13:40;13.60;99.90
43627;DHT22;29217;52.586;13.442;2022-09-17T16:16:06;13.60;99.90
43627;DHT22;29217;52.586;13.442;2022-09-17T16:18:33;13.70;99.90
43627;DHT22;29217;52.586;13.442;2022-09-17T16:20:58;13.50;99.90
43627;DHT22;29217;52.586;13.442;2022-09-17T16:23:24;13.40;99.90
43627;DHT22;29217;52.586;13.442;2022-09-17T16:25:50;13.30;99.90
43627;DHT22;29217;52.586;13.442;2022-09-17T16:28:18;13.20;99.90
43627;DHT22;29217;52.586;13.442;2022-09-17T16:30:46;13.10;99.90
43627;DHT22;29217;52.586;13.442;2022-09-17T16:33:13;12.90;99.90
43627;DHT22;29217;52.586;13.442;2022-09-17T16:35:40;12.90;99.90
43627;DHT22;29217;52.586;13.442;2022-09-17T16:38:07;12.80;99.90
43627;DHT22;29217;52.586;13.442;2022-09-17T16:40:33;12.70;99.90
43627;DHT22;29217;52.586;13.442;2022-09-17T16:43:01;12.70;99.90
43627;DHT22;29217;52.586;13.442;2022-09-17T16:45:30;12.60;99.90
43627;DHT22;29217;52.586;13.442;2022-09-17T16:47:56;12.60;99.90
43627;DHT22;29217;52.586;13.442;2022-09-17T16:50:22;12.60;99.90
43627;DHT22;29217;52.586;13.442;2022-09-17T16:52:47;12.50;99.90
43627;DHT22;29217;52.586;13.442;2022-09-17T16:55:15;12.50;99.90
43627;DHT22;29217;52.586;13.442;2022-09-17T16:57:41;12.40;99.90
43627;DHT22;29217;52.586;13.442;2022-09-17T17:00:09;12.40;99.90
43627;DHT22;29217;52.586;13.442;2022-09-17T17:02:41;12.30;99.90
43627;DHT22;29217;52.586;13.442;2022-09-17T17:05:07;12.30;99.90
43627;DHT22;29217;52.586;13.442;2022-09-17T17:07:34;12.20;99.90
43627;DHT22;29217;52.586;13.442;2022-09-17T17:10:00;12.20;99.90
43627;DHT22;29217;52.586;13.442;2022-09-17T17:12:26;12.20;99.90
43627;DHT22;29217;52.586;13.442;2022-09-17T17:14:52;12.20;99.90
43627;DHT22;29217;52.586;13.442;2022-09-17T17:17:19;12.20;99.90
43627;DHT22;29217;52.586;13.442;2022-09-17T17:19:45;12.10;99.90
43627;DHT22;29217;52.586;13.442;2022-09-17T17:22:11;12.20;99.90
43627;DHT22;29217;52.586;13.442;2022-09-17T17:24:37;12.20;99.90
43627;DHT22;29217;52.586;13.442;2022-09-17T17:27:03;12.20;99.90
43627;DHT22;29217;52.586;13.442;2022-09-17T17:29:28;12.20;99.90
43627;DHT22;29217;52.586;13.442;2022-09-17T17:31:54;12.20;99.90
43627;DHT22;29217;52.586;13.442;2022-09-17T17:34:19;12.20;99.90
43627;DHT22;29217;52.586;13.442;2022-09-17T17:36:48;12.20;99.90
43627;DHT22;29217;52.586;13.442;2022-09-17T17:39:14;12.20;99.90
43627;DHT22;29217;52.586;13.442;2022-09-17T17:41:40;12.20;99.90
43627;DHT22;29217;52.586;13.442;2022-09-17T17:44:05;12.20;99.90
43627;DHT22;29217;52.586;13.442;2022-09-17T17:46:31;12.20;99.90
43627;DHT22;29217;52.586;13.442;2022-09-17T17:48:56;12.20;99.90
43627;DHT22;29217;52.586;13.442;2022-09-17T17:51:22;12.20;99.90
43627;DHT22;29217;52.586;13.442;2022-09-17T17:53:49;12.20;99.90
43627;DHT22;29217;52.586;13.442;2022-09-17T17:56:15;12.10;99.90
43627;DHT22;29217;52.586;13.442;2022-09-17T17:58:41;12.20;99.90
43627;DHT22;29217;52.586;13.442;2022-09-17T18:01:15;12.10;99.90
43627;DHT22;29217;52.586;13.442;2022-09-17T18:03:42;12.10;99.90
43627;DHT22;29217;52.586;13.442;2022-09-17T18:06:08;12.00;99.90
43627;DHT22;29217;52.586;13.442;2022-09-17T18:08:39;12.00;99.90
43627;DHT22;29217;52.586;13.442;2022-09-17T18:11:06;11.90;99.90
43627;DHT22;29217;52.586;13.442;2022-09-17T18:13:36;11.90;99.90
43627;DHT22;29217;52.586;13.442;2022-09-17T18:16:04;11.90;99.90
43627;DHT22;29217;52.586;13.442;2022-09-17T18:18:33;11.90;99.90
43627;DHT22;29217;52.586;13.442;2022-09-17T18:21:00;11.80;99.90
43627;DHT22;29217;52.586;13.442;2022-09-17T18:23:27;11.80;99.90
43627;DHT22;29217;52.586;13.442;2022-09-17T18:25:58;11.70;99.90
43627;DHT22;29217;52.586;13.442;2022-09-17T18:28:25;11.70;99.90
43627;DHT22;29217;52.586;13.442;2022-09-17T18:30:51;11.60;99.90
43627;DHT22;29217;52.586;13.442;2022-09-17T18:33:21;11.60;99.90
43627;DHT22;29217;52.586;13.442;2022-09-17T18:35:49;11.60;99.90
43627;DHT22;29217;52.586;13.442;2022-09-17T18:38:15;11.60;99.90
43627;DHT22;29217;52.586;13.442;2022-09-17T18:40:41;11.60;99.90